Terminal Aerodrome Forecast
Issued by NWS

Home | Current Version | Previous Version | Text Only | Print | Product List | Glossary On
Versions: 1 2 3 4 5 6 7 8 9 10 11 12 13
000
FTUS46 KHNX 221729
TAFMCE
TAF
KMCE 221729Z 2218/2318 12007KT P6SM VCSH BKN030 OVC045
     FM230300 33002KT P6SM OVC025
     FM230600 34004KT 4SM BR OVC025
     FM231000 34003KT 2SM BR OVC004=

USA.gov is the U.S. government's official web portal to all federal, state and local government web resources and services.